createdAt,value
2023-03-05T00:01:19.172Z,102244.38
2023-03-05T00:03:48.613Z,102244.60
2023-03-05T00:06:17.599Z,102245.98
2023-03-05T00:08:46.106Z,102245.37
2023-03-05T00:11:13.847Z,102243.33
2023-03-05T00:13:42.465Z,102241.64
2023-03-05T00:16:11.812Z,102243.77
2023-03-05T00:18:40.798Z,102247.48
2023-03-05T00:21:28.087Z,102246.48
2023-03-05T00:23:57.057Z,102247.67
2023-03-05T00:26:26.121Z,102248.70
2023-03-05T00:28:55.299Z,102241.88
2023-03-05T00:31:24.845Z,102242.38
2023-03-05T00:33:53.932Z,102242.89
2023-03-05T00:36:22.157Z,102240.77
2023-03-05T00:38:50.044Z,102239.58
2023-03-05T00:41:17.906Z,102242.27
2023-03-05T00:43:45.887Z,102240.33
2023-03-05T00:46:15.405Z,102239.46
2023-03-05T00:48:43.686Z,102229.88
2023-03-05T00:51:11.590Z,102229.92
2023-03-05T00:53:39.450Z,102221.76
2023-03-05T00:56:07.566Z,102218.27
2023-03-05T00:58:35.415Z,102209.44
2023-03-05T01:01:03.886Z,102206.91
2023-03-05T01:03:32.915Z,102205.02
2023-03-05T01:06:01.796Z,102200.21
2023-03-05T01:08:29.781Z,102192.84
2023-03-05T01:10:57.805Z,102193.11
2023-03-05T01:13:25.476Z,102191.29
2023-03-05T01:15:53.447Z,102185.46
2023-03-05T01:18:21.173Z,102181.98
2023-03-05T01:20:50.299Z,102181.71
2023-03-05T01:23:18.212Z,102176.60
2023-03-05T01:25:46.206Z,102175.48
2023-03-05T01:28:14.326Z,102171.31
2023-03-05T01:30:42.237Z,102171.66
2023-03-05T01:33:10.056Z,102167.46
2023-03-05T01:35:37.988Z,102163.31
2023-03-05T01:38:05.947Z,102158.45
2023-03-05T01:40:33.956Z,102153.63
2023-03-05T01:43:22.900Z,102154.57
2023-03-05T01:46:09.395Z,102151.98
2023-03-05T01:48:37.707Z,102150.07
2023-03-05T01:51:05.548Z,102150.28
2023-03-05T01:53:33.622Z,102147.77
2023-03-05T01:56:01.675Z,102142.66
2023-03-05T01:58:29.614Z,102133.11
2023-03-05T02:00:57.746Z,102131.89
2023-03-05T02:03:26.409Z,102126.30
2023-03-05T02:05:54.054Z,102123.84
2023-03-05T02:08:22.297Z,102124.83
2023-03-05T02:10:53.410Z,102126.86
2023-03-05T02:13:23.046Z,102124.35
2023-03-05T02:15:52.520Z,102114.77
2023-03-05T02:18:23.172Z,102111.61
2023-03-05T02:20:54.072Z,102109.50
2023-03-05T02:23:23.282Z,102107.73
2023-03-05T02:25:52.064Z,102104.27
2023-03-05T02:28:24.841Z,102100.36
2023-03-05T02:30:52.800Z,102095.45
2023-03-05T02:33:21.047Z,102092.56
2023-03-05T02:35:49.257Z,102089.14
2023-03-05T02:38:18.586Z,102086.38
2023-03-05T02:40:47.957Z,102081.18
2023-03-05T02:43:15.699Z,102078.98
2023-03-05T02:45:43.943Z,102073.89
2023-03-05T02:48:12.885Z,102073.30
2023-03-05T02:50:41.361Z,102070.02
2023-03-05T02:53:09.325Z,102068.81
2023-03-05T02:55:37.142Z,102065.84
2023-03-05T02:58:04.963Z,102066.17
2023-03-05T03:00:32.729Z,102062.99
2023-03-05T03:03:00.484Z,102061.40
2023-03-05T03:05:28.295Z,102058.91
2023-03-05T03:07:56.224Z,102052.07
2023-03-05T03:10:24.357Z,102042.74
2023-03-05T03:12:52.319Z,102044.86
2023-03-05T03:15:20.059Z,102038.91
2023-03-05T03:17:48.298Z,102036.48
2023-03-05T03:20:17.365Z,102031.70
2023-03-05T03:22:45.967Z,102031.98
2023-03-05T03:25:14.910Z,102028.08
2023-03-05T03:27:42.781Z,102024.82
2023-03-05T03:30:11.654Z,102024.30
2023-03-05T03:32:39.868Z,102020.10
2023-03-05T03:35:08.405Z,102020.35
2023-03-05T03:37:36.271Z,102016.98
2023-03-05T03:40:05.873Z,102009.48
2023-03-05T03:42:33.864Z,102004.45
2023-03-05T03:45:02.534Z,102007.05
2023-03-05T03:47:31.323Z,102000.66
2023-03-05T03:49:59.171Z,101999.14
2023-03-05T03:52:27.829Z,101995.23
2023-03-05T03:55:01.470Z,101992.14
2023-03-05T03:57:30.317Z,101992.41
2023-03-05T03:59:58.446Z,101986.11
2023-03-05T04:02:26.708Z,101988.92
2023-03-05T04:04:54.574Z,101985.02
2023-03-05T04:07:22.293Z,101985.11
2023-03-05T04:09:50.342Z,101983.08
2023-03-05T04:12:18.453Z,101979.96
2023-03-05T04:14:47.172Z,101974.73
2023-03-05T04:17:15.403Z,101971.89
2023-03-05T04:19:43.656Z,101966.81
2023-03-05T04:22:12.781Z,101962.63
2023-03-05T04:24:41.168Z,101967.14
2023-03-05T04:27:09.045Z,101964.73
2023-03-05T04:29:37.385Z,101959.43
2023-03-05T04:32:05.765Z,101955.38
2023-03-05T04:34:33.541Z,101950.14
2023-03-05T04:37:02.209Z,101943.91
2023-03-05T04:39:30.003Z,101942.35
2023-03-05T04:41:57.767Z,101942.60
2023-03-05T04:44:26.229Z,101937.39
2023-03-05T04:46:55.804Z,101931.85
2023-03-05T04:49:23.518Z,101928.22
2023-03-05T04:51:51.855Z,101930.09
2023-03-05T04:54:19.588Z,101925.40
2023-03-05T04:56:47.375Z,101924.73
2023-03-05T04:59:15.139Z,101921.98
2023-03-05T05:01:43.567Z,101920.45
2023-03-05T05:04:11.325Z,101920.50
2023-03-05T05:06:39.086Z,101918.26
2023-03-05T05:09:07.338Z,101913.01
2023-03-05T05:11:35.160Z,101917.14
2023-03-05T05:14:04.533Z,101910.00
2023-03-05T05:16:32.402Z,101908.80
2023-03-05T05:19:00.144Z,101909.06
2023-03-05T05:21:28.114Z,101907.21
2023-03-05T05:23:55.853Z,101902.10
2023-03-05T05:26:23.740Z,101899.92
2023-03-05T05:28:51.450Z,101900.13
2023-03-05T05:31:20.013Z,101896.93
2023-03-05T05:33:49.765Z,101887.33
2023-03-05T05:36:19.291Z,101885.36
2023-03-05T05:38:47.229Z,101880.65
2023-03-05T05:41:16.601Z,101874.09
2023-03-05T05:43:45.015Z,101873.35
2023-03-05T05:46:15.378Z,101868.89
2023-03-05T05:48:43.738Z,101868.27
2023-03-05T05:51:16.432Z,101866.63
2023-03-05T05:53:44.436Z,101866.71
2023-03-05T05:56:12.691Z,101862.59
2023-03-05T05:58:41.338Z,101856.04
2023-03-05T06:01:13.139Z,101851.08
2023-03-05T06:03:41.051Z,101849.02
2023-03-05T06:06:12.659Z,101849.95
2023-03-05T06:08:41.001Z,101850.27
2023-03-05T06:11:08.703Z,101846.91
2023-03-05T06:13:36.715Z,101842.58
2023-03-05T06:16:06.140Z,101835.92
2023-03-05T06:18:34.800Z,101834.82
2023-03-05T06:21:05.173Z,101833.80
2023-03-05T06:23:34.677Z,101836.02
2023-03-05T06:26:03.772Z,101836.77
2023-03-05T06:28:32.245Z,101836.70
2023-03-05T06:31:07.433Z,101835.44
2023-03-05T06:33:35.783Z,101838.85
2023-03-05T06:36:07.737Z,101844.33
2023-03-05T06:38:36.919Z,101844.38
2023-03-05T06:41:06.765Z,101847.48
2023-03-05T06:43:37.389Z,101851.44
2023-03-05T06:46:16.939Z,101854.36
2023-03-05T06:48:45.505Z,101853.30
2023-03-05T06:51:14.696Z,101856.88
2023-03-05T06:53:42.926Z,101852.48
2023-03-05T06:56:11.465Z,101844.77
2023-03-05T06:58:39.392Z,101842.09
2023-03-05T07:01:07.602Z,101843.09
2023-03-05T07:03:35.748Z,101838.42
2023-03-05T07:06:07.823Z,101837.56
2023-03-05T07:08:35.949Z,101841.40
2023-03-05T07:11:04.244Z,101843.80
2023-03-05T07:13:32.219Z,101839.85
2023-03-05T07:15:59.999Z,101835.67
2023-03-05T07:18:28.608Z,101836.48
2023-03-05T07:20:56.494Z,101831.88
2023-03-05T07:23:24.306Z,101828.88
2023-03-05T07:25:51.955Z,101827.64
2023-03-05T07:28:19.803Z,101828.47
2023-03-05T07:30:54.829Z,101828.95
2023-03-05T07:33:22.663Z,101830.93
2023-03-05T07:35:50.343Z,101829.23
2023-03-05T07:38:18.141Z,101828.11
2023-03-05T07:40:45.920Z,101823.34
2023-03-05T07:43:14.420Z,101826.91
2023-03-05T07:45:45.198Z,101827.54
2023-03-05T07:48:14.901Z,101822.95
2023-03-05T07:50:43.295Z,101821.83
2023-03-05T07:53:11.478Z,101825.60
2023-03-05T07:55:45.723Z,101820.56
2023-03-05T07:58:14.218Z,101823.67
2023-03-05T08:00:41.996Z,101815.29
2023-03-05T08:03:09.823Z,101815.02
2023-03-05T08:05:42.002Z,101819.30
2023-03-05T08:08:10.399Z,101818.83
2023-03-05T08:10:38.543Z,101819.83
2023-03-05T08:13:06.362Z,101817.17
2023-03-05T08:15:34.277Z,101810.22
2023-03-05T08:18:02.233Z,101804.72
2023-03-05T08:20:30.203Z,101798.85
2023-03-05T08:22:57.948Z,101802.16
2023-03-05T08:25:25.662Z,101799.02
2023-03-05T08:27:53.372Z,101791.20
2023-03-05T08:30:22.423Z,101787.36
2023-03-05T08:32:50.442Z,101785.09
2023-03-05T08:35:18.366Z,101781.44
2023-03-05T08:37:46.269Z,101781.45
2023-03-05T08:40:14.344Z,101781.71
2023-03-05T08:42:42.214Z,101780.58
2023-03-05T08:45:13.136Z,101775.19
2023-03-05T08:47:41.126Z,101771.38
2023-03-05T08:50:09.264Z,101774.30
2023-03-05T08:52:38.329Z,101774.19
2023-03-05T08:55:06.195Z,101772.75
2023-03-05T08:57:34.179Z,101767.13
2023-03-05T09:00:01.986Z,101763.84
2023-03-05T09:02:30.208Z,101757.83
2023-03-05T09:04:57.975Z,101756.30
2023-03-05T09:07:25.902Z,101755.48
2023-03-05T09:09:53.929Z,101754.97
2023-03-05T09:12:22.563Z,101752.20
2023-03-05T09:14:50.653Z,101747.54
2023-03-05T09:17:18.409Z,101737.98
2023-03-05T09:19:46.208Z,101726.39
2023-03-05T09:22:14.013Z,101719.94
2023-03-05T09:24:43.503Z,101726.14
2023-03-05T09:27:11.644Z,101729.98
2023-03-05T09:29:40.830Z,101728.41
2023-03-05T09:32:10.894Z,101724.40
2023-03-05T09:34:38.620Z,101724.11
2023-03-05T09:37:06.420Z,101726.50
2023-03-05T09:39:34.480Z,101725.45
2023-03-05T09:42:02.316Z,101716.73
2023-03-05T09:44:32.881Z,101711.48
2023-03-05T09:47:03.559Z,101706.45
2023-03-05T09:49:31.284Z,101696.85
2023-03-05T09:52:07.578Z,101699.62
2023-03-05T09:54:38.775Z,101696.11
2023-03-05T09:57:14.089Z,101696.35
2023-03-05T09:59:44.866Z,101695.23
2023-03-05T10:02:15.986Z,101683.87
2023-03-05T10:04:48.036Z,101678.50
2023-03-05T10:07:22.783Z,101673.02
2023-03-05T10:09:56.586Z,101669.08
2023-03-05T10:12:39.130Z,101668.27
2023-03-05T10:15:21.475Z,101669.08
2023-03-05T10:18:09.454Z,101666.70
2023-03-05T10:20:37.241Z,101658.95
2023-03-05T10:23:17.118Z,101653.14
2023-03-05T10:26:04.420Z,101642.72
2023-03-05T10:28:47.489Z,101635.25
2023-03-05T10:31:15.440Z,101635.45
2023-03-05T10:33:49.505Z,101631.90
2023-03-05T10:36:20.232Z,101628.23
2023-03-05T10:38:48.347Z,101621.04
2023-03-05T10:41:43.353Z,101615.48
2023-03-05T10:44:32.727Z,101613.63
2023-03-05T10:47:00.796Z,101610.09
2023-03-05T10:49:37.474Z,101606.73
2023-03-05T10:52:18.675Z,101607.84
2023-03-05T10:54:46.848Z,101606.76
2023-03-05T10:57:18.316Z,101606.31
2023-03-05T10:59:48.164Z,101603.70
2023-03-05T11:02:16.253Z,101600.94
2023-03-05T11:04:47.315Z,101600.21
2023-03-05T11:07:15.141Z,101593.77
2023-03-05T11:10:04.625Z,101586.35
2023-03-05T11:12:36.406Z,101582.59
2023-03-05T11:15:10.471Z,101579.66
2023-03-05T11:17:38.438Z,101577.54
2023-03-05T11:20:24.766Z,101576.56
2023-03-05T11:23:11.238Z,101569.40
2023-03-05T11:25:59.447Z,101566.96
2023-03-05T11:28:33.413Z,101560.16
2023-03-05T11:31:02.135Z,101559.41
2023-03-05T11:33:30.757Z,101553.45
2023-03-05T11:36:21.886Z,101548.71
2023-03-05T11:39:19.568Z,101539.58
2023-03-05T11:41:53.675Z,101535.81
2023-03-05T11:44:28.118Z,101532.48
2023-03-05T11:47:00.003Z,101519.62
2023-03-05T11:49:29.142Z,101513.61
2023-03-05T11:52:10.872Z,101507.27
2023-03-05T11:54:44.680Z,101504.94
2023-03-05T11:57:14.699Z,101499.91
2023-03-05T11:59:43.041Z,101499.58
2023-03-05T12:02:24.581Z,101497.09
2023-03-05T12:04:52.697Z,101498.20
2023-03-05T12:07:28.291Z,101495.63
2023-03-05T12:09:56.236Z,101490.50
2023-03-05T12:12:37.742Z,101490.07
2023-03-05T12:15:17.851Z,101485.45
2023-03-05T12:17:45.741Z,101478.67
2023-03-05T12:20:17.679Z,101479.26
2023-03-05T12:22:45.743Z,101472.83
2023-03-05T12:25:28.396Z,101461.56
2023-03-05T12:27:56.254Z,101449.23
2023-03-05T12:30:49.996Z,101440.60
2023-03-05T12:33:29.998Z,101440.31
2023-03-05T12:36:16.684Z,101435.56
2023-03-05T12:38:46.417Z,101429.51
2023-03-05T12:41:34.716Z,101422.35
2023-03-05T12:44:05.397Z,101414.74
2023-03-05T12:46:40.044Z,101411.54
2023-03-05T12:49:20.452Z,101408.82
2023-03-05T12:51:49.290Z,101404.49
2023-03-05T12:54:23.659Z,101397.65
2023-03-05T12:56:52.767Z,101388.66
2023-03-05T12:59:22.160Z,101382.08
2023-03-05T13:01:59.408Z,101377.19
2023-03-05T13:04:29.546Z,101372.19
2023-03-05T13:07:01.730Z,101365.72
2023-03-05T13:09:33.069Z,101363.06
2023-03-05T13:12:02.491Z,101356.46
2023-03-05T13:14:36.218Z,101355.45
2023-03-05T13:17:23.972Z,101352.67
2023-03-05T13:19:52.441Z,101344.10
2023-03-05T13:22:21.456Z,101341.98
2023-03-05T13:24:49.328Z,101339.05
2023-03-05T13:27:30.071Z,101330.36
2023-03-05T13:29:58.032Z,101324.83
2023-03-05T13:32:30.336Z,101321.20
2023-03-05T13:34:59.207Z,101314.42
2023-03-05T13:37:28.357Z,101310.08
2023-03-05T13:40:00.595Z,101308.83
2023-03-05T13:42:32.481Z,101301.84
2023-03-05T13:45:01.698Z,101302.38
2023-03-05T13:47:33.772Z,101303.69
2023-03-05T13:50:07.101Z,101298.73
2023-03-05T13:52:36.791Z,101295.88
2023-03-05T13:55:16.988Z,101289.86
2023-03-05T13:57:47.270Z,101285.06
2023-03-05T14:00:27.326Z,101286.68
2023-03-05T14:02:58.669Z,101283.80
2023-03-05T14:05:28.173Z,101278.17
2023-03-05T14:07:56.761Z,101278.58
2023-03-05T14:10:30.624Z,101277.16
2023-03-05T14:12:59.315Z,101277.32
2023-03-05T14:15:27.065Z,101274.29
2023-03-05T14:18:15.800Z,101270.68
2023-03-05T14:21:02.493Z,101269.66
2023-03-05T14:23:34.241Z,101263.10
2023-03-05T14:26:12.266Z,101261.90
2023-03-05T14:28:40.736Z,101257.17
2023-03-05T14:31:16.298Z,101253.04
2023-03-05T14:33:44.353Z,101255.30
2023-03-05T14:36:12.762Z,101253.94
2023-03-05T14:38:41.799Z,101253.02
2023-03-05T14:41:42.131Z,101255.40
2023-03-05T14:44:15.071Z,101253.48
2023-03-05T14:46:43.599Z,101245.66
2023-03-05T14:49:11.346Z,101240.67
2023-03-05T14:51:41.317Z,101242.63
2023-03-05T14:54:18.170Z,101235.05
2023-03-05T14:56:46.349Z,101230.34
2023-03-05T14:59:14.111Z,101227.70
2023-03-05T15:01:41.806Z,101233.73
2023-03-05T15:04:10.103Z,101232.42
2023-03-05T15:06:39.806Z,101228.81
2023-03-05T15:09:08.117Z,101229.39
2023-03-05T15:11:35.933Z,101225.05
2023-03-05T15:14:03.847Z,101221.43
2023-03-05T15:16:32.850Z,101212.35
2023-03-05T15:19:02.933Z,101202.19
2023-03-05T15:21:31.268Z,101189.23
2023-03-05T15:23:59.156Z,101189.61
2023-03-05T15:26:27.067Z,101191.45
2023-03-05T15:28:54.860Z,101182.77
2023-03-05T15:31:22.963Z,101179.85
2023-03-05T15:33:50.801Z,101176.49
2023-03-05T15:36:18.825Z,101174.40
2023-03-05T15:38:48.049Z,101172.30
2023-03-05T15:41:16.684Z,101168.17
2023-03-05T15:43:44.543Z,101164.98
2023-03-05T15:46:12.380Z,101166.48
2023-03-05T15:48:40.386Z,101164.85
2023-03-05T15:51:09.220Z,101160.09
2023-03-05T15:53:36.981Z,101149.67
2023-03-05T15:56:04.787Z,101149.66
2023-03-05T15:58:32.514Z,101142.17
2023-03-05T16:01:00.231Z,101143.90
2023-03-05T16:03:29.220Z,101141.80
2023-03-05T16:05:57.004Z,101139.38
2023-03-05T16:08:25.059Z,101139.73
2023-03-05T16:10:52.746Z,101135.61
2023-03-05T16:13:21.719Z,101133.56
2023-03-05T16:15:53.271Z,101128.08
2023-03-05T16:18:21.884Z,101120.37
2023-03-05T16:20:49.720Z,101114.81
2023-03-05T16:23:17.852Z,101109.08
2023-03-05T16:25:46.307Z,101114.11
2023-03-05T16:28:14.415Z,101103.40
2023-03-05T16:30:42.248Z,101103.67
2023-03-05T16:33:10.357Z,101100.99
2023-03-05T16:35:38.226Z,101097.26
2023-03-05T16:38:07.092Z,101090.67
2023-03-05T16:41:05.590Z,101085.32
2023-03-05T16:43:24.690Z,101079.67
2023-03-05T16:45:52.661Z,101071.77
2023-03-05T16:48:20.406Z,101068.83
2023-03-05T16:50:48.269Z,101057.50
2023-03-05T16:53:16.043Z,101059.48
2023-03-05T16:55:46.765Z,101064.65
2023-03-05T16:58:14.516Z,101063.30
2023-03-05T17:00:42.573Z,101058.34
2023-03-05T17:03:10.760Z,101055.98
2023-03-05T17:05:38.894Z,101049.45
2023-03-05T17:08:06.892Z,101051.51
2023-03-05T17:10:34.718Z,101046.10
2023-03-05T17:13:02.490Z,101046.64
2023-03-05T17:15:30.320Z,101050.59
2023-03-05T17:17:58.089Z,101051.02
2023-03-05T17:20:25.902Z,101050.77
2023-03-05T17:22:53.760Z,101046.33
2023-03-05T17:25:21.883Z,101045.68
2023-03-05T17:27:49.649Z,101042.73
2023-03-05T17:30:17.556Z,101043.58
2023-03-05T17:32:45.375Z,101038.78
2023-03-05T17:35:17.925Z,101040.41
2023-03-05T17:37:45.680Z,101038.90
2023-03-05T17:40:15.668Z,101035.27
2023-03-05T17:42:44.760Z,101035.98
2023-03-05T17:45:13.021Z,101037.70
2023-03-05T17:47:40.748Z,101028.24
2023-03-05T17:50:09.288Z,101028.31
2023-03-05T17:52:41.356Z,101030.03
2023-03-05T17:55:10.783Z,101025.35
2023-03-05T17:57:41.861Z,101022.89
2023-03-05T18:00:29.373Z,101019.98
2023-03-05T18:03:00.727Z,101010.94
2023-03-05T18:05:29.020Z,101011.89
2023-03-05T18:07:57.310Z,101008.73
2023-03-05T18:10:26.463Z,101003.41
2023-03-05T18:12:54.938Z,101005.61
2023-03-05T18:15:23.358Z,101001.55
2023-03-05T18:17:51.773Z,100999.89
2023-03-05T18:20:27.825Z,100993.38
2023-03-05T18:22:56.601Z,100989.86
2023-03-05T18:25:30.809Z,100994.86
2023-03-05T18:27:59.487Z,100993.11
2023-03-05T18:30:27.737Z,100998.16
2023-03-05T18:32:56.123Z,100994.70
2023-03-05T18:35:24.738Z,100989.03
2023-03-05T18:37:52.548Z,100984.94
2023-03-05T18:40:22.829Z,100985.88
2023-03-05T18:42:50.929Z,100981.58
2023-03-05T18:45:20.302Z,100982.76
2023-03-05T18:47:49.179Z,100984.84
2023-03-05T18:50:18.661Z,100980.42
2023-03-05T18:52:46.533Z,100978.16
2023-03-05T18:55:18.494Z,100977.52
2023-03-05T18:57:46.422Z,100974.44
2023-03-05T19:00:15.329Z,100970.17
2023-03-05T19:02:43.081Z,100965.98
2023-03-05T19:05:12.307Z,100965.09
2023-03-05T19:07:40.210Z,100963.26
2023-03-05T19:10:10.336Z,100962.88
2023-03-05T19:12:45.615Z,100957.10
2023-03-05T19:15:13.514Z,100953.57
2023-03-05T19:17:41.464Z,100952.08
2023-03-05T19:20:12.272Z,100949.48
2023-03-05T19:22:40.226Z,100947.66
2023-03-05T19:25:08.677Z,100946.08
2023-03-05T19:27:37.123Z,100944.48
2023-03-05T19:30:05.708Z,100946.89
2023-03-05T19:32:34.291Z,100947.77
2023-03-05T19:35:02.279Z,100943.55
2023-03-05T19:37:31.038Z,100940.27
2023-03-05T19:39:58.926Z,100939.02
2023-03-05T19:42:27.851Z,100937.95
2023-03-05T19:44:56.505Z,100935.59
2023-03-05T19:47:26.507Z,100934.58
2023-03-05T19:49:54.349Z,100938.53
2023-03-05T19:52:22.238Z,100938.27
2023-03-05T19:54:50.037Z,100936.64
2023-03-05T19:57:17.850Z,100938.30
2023-03-05T19:59:46.900Z,100938.42
2023-03-05T20:02:19.389Z,100939.15
2023-03-05T20:04:47.981Z,100938.36
2023-03-05T20:07:16.119Z,100934.64
2023-03-05T20:09:43.890Z,100937.14
2023-03-05T20:12:11.954Z,100938.61
2023-03-05T20:14:39.836Z,100936.77
2023-03-05T20:17:07.599Z,100932.03
2023-03-05T20:19:36.536Z,100934.41
2023-03-05T20:22:04.272Z,100937.36
2023-03-05T20:24:32.264Z,100935.98
2023-03-05T20:27:00.750Z,100939.27
2023-03-05T20:29:28.817Z,100939.56
2023-03-05T20:31:57.056Z,100941.46
2023-03-05T20:34:27.095Z,100937.23
2023-03-05T20:36:54.961Z,100940.92
2023-03-05T20:39:22.835Z,100940.45
2023-03-05T20:41:51.336Z,100937.60
2023-03-05T20:44:19.497Z,100938.95
2023-03-05T20:46:59.736Z,100939.52
2023-03-05T20:49:27.964Z,100936.14
2023-03-05T20:51:55.707Z,100935.23
2023-03-05T20:54:27.265Z,100931.09
2023-03-05T20:56:55.060Z,100932.46
2023-03-05T20:59:23.417Z,100928.10
2023-03-05T21:01:51.137Z,100927.50
2023-03-05T21:04:19.040Z,100923.94
2023-03-05T21:06:52.834Z,100922.46
2023-03-05T21:09:20.610Z,100921.11
2023-03-05T21:11:48.371Z,100918.35
2023-03-05T21:14:16.175Z,100913.58
2023-03-05T21:16:43.958Z,100912.56
2023-03-05T21:19:11.789Z,100908.77
2023-03-05T21:21:40.490Z,100906.75
2023-03-05T21:24:09.570Z,100902.41
2023-03-05T21:26:37.466Z,100900.25
2023-03-05T21:29:05.199Z,100896.73
2023-03-05T21:31:33.301Z,100901.85
2023-03-05T21:34:01.023Z,100895.74
2023-03-05T21:36:28.914Z,100892.80
2023-03-05T21:38:58.407Z,100893.38
2023-03-05T21:41:27.660Z,100883.37
2023-03-05T21:43:55.464Z,100882.29
2023-03-05T21:46:23.532Z,100880.08
2023-03-05T21:48:51.435Z,100877.73
2023-03-05T21:51:20.553Z,100879.06
2023-03-05T21:53:49.492Z,100868.55
2023-03-05T21:56:18.243Z,100865.09
2023-03-05T21:58:46.534Z,100865.71
2023-03-05T22:01:14.986Z,100866.34
2023-03-05T22:03:42.768Z,100864.14
2023-03-05T22:06:14.024Z,100859.34
2023-03-05T22:08:41.802Z,100852.58
2023-03-05T22:11:10.561Z,100851.29
2023-03-05T22:13:38.405Z,100853.45
2023-03-05T22:16:07.108Z,100850.17
2023-03-05T22:18:34.929Z,100849.11
2023-03-05T22:21:03.614Z,100841.78
2023-03-05T22:23:34.158Z,100846.46
2023-03-05T22:26:03.389Z,100841.95
2023-03-05T22:28:31.676Z,100833.35
2023-03-05T22:31:00.688Z,100837.90
2023-03-05T22:33:29.716Z,100836.20
2023-03-05T22:35:58.816Z,100833.19
2023-03-05T22:38:26.516Z,100826.88
2023-03-05T22:40:54.859Z,100823.39
2023-03-05T22:43:22.540Z,100821.80
2023-03-05T22:45:50.487Z,100817.95
2023-03-05T22:48:18.223Z,100814.77
2023-03-05T22:50:46.157Z,100815.72
2023-03-05T22:53:14.083Z,100811.45
2023-03-05T22:55:42.455Z,100810.16
2023-03-05T22:58:10.168Z,100807.75
2023-03-05T23:00:37.980Z,100804.10
2023-03-05T23:03:06.704Z,100800.54
2023-03-05T23:05:35.454Z,100800.28
2023-03-05T23:08:03.235Z,100797.13
2023-03-05T23:10:31.105Z,100794.08
2023-03-05T23:13:00.751Z,100794.16
2023-03-05T23:15:30.492Z,100792.63
2023-03-05T23:17:58.854Z,100790.92
2023-03-05T23:20:28.482Z,100789.90
2023-03-05T23:22:59.433Z,100789.20
2023-03-05T23:25:28.933Z,100785.50
2023-03-05T23:27:59.014Z,100786.17
2023-03-05T23:30:28.430Z,100783.11
2023-03-05T23:32:57.571Z,100781.84
2023-03-05T23:35:36.428Z,100777.02
2023-03-05T23:38:05.627Z,100775.19
2023-03-05T23:40:35.057Z,100775.52
2023-03-05T23:43:02.990Z,100775.81
2023-03-05T23:45:30.969Z,100769.85
2023-03-05T23:47:58.766Z,100769.48
2023-03-05T23:50:32.814Z,100767.77
2023-03-05T23:53:02.293Z,100765.84
2023-03-05T23:55:34.778Z,100765.39
2023-03-05T23:58:03.206Z,100759.34
